Kezdőlap
METAR-TAF:

METAR-TAF

Repülőterek :

Brighton, Anglia

földrajzi szélesség: 50-50N, földrajzi hosszúság: 000-17W, magasság: 2 m

Jelenlegi meteorológiai megfigyelések

A jelentés 28 perccel ezelõtt készült, 15:20 UTC
Délnyugati szél 15 kt
Hőmérséklet 9°C
Páratartalom 81%
Légköri nyomás 1000 hPa
Látótávolság 10 km, vagy több
Kevés felhő 2500 lábon

METAR: EGKA 151520Z 22015KT 9999 FEW025 09/06 Q1000

Idő: 15:48 (15:48 UTC)

Előrejelzés

A jelentés 1 órával és 51 perccel ezelõtt készült, 13:57 UTC
Az előrejelzés 15-én 15 óra UTC és 15-én 19 óra UTC között érvényes
Nyugat-délnyugati szél 18 kt széllökések: 28 kt
Látótávolság 10 km, vagy több
Kevés felhő 3000 lábon
Valószínűség 30% :
15-én 15 óra UTC és 15-én 19 óra UTC között ideiglenes
Látótávolság: 7000 m
Szakadozott felhőzet 1200 lábon
záporok

TAF: EGKA 151357Z 1515/1519 24018G28KT 9999 FEW030 PROB30 TEMPO 1515/1519 7000 SHRA BKN012

Meteorológiai megfigyelések és előrejelzések több, mint 4000 repülőtéren (METAR és TAF jelentéseket).

A térképen piros és sárga pontok jelzik az elérhető meteorológiai állomásokat.

Mozgassa az egeret a pont fölött, hogy megjelenjen az állomás neve.

Azután kattintson az időjárási megfigyelések és előrejelzések megtekintéséhez.

A térkép megváltoztatása: kattintson a fekete keresztel jelölt zöld gombra ráközelítéshez, a vonallal jelölt zöld gombra távolításhoz, vagy a zöld nyilakra a szomszédos térképek eléréséhez.


METAR-TAF: